Time;durP1;ratioP1;P1;durP2;ratioP2;P2;SDS_P1;SDS_P2;PMS_P1;PMS_P2;Temp;Humidity;BMP_temperature;BMP_pressure;BME280_temperature;BME280_humidity;BME280_pressure;Samples;Min_cycle;Max_cycle;Signal;HPM_P1;HPM_P2
2022/12/08 00:00:38;;;;;;;3.08;1.02;;;19.50;57.20;;;;;;4953117;28;20050;-56
2022/12/08 00:03:04;;;;;;;1.98;0.93;;;19.50;57.20;;;;;;4952419;29;20205;-56
2022/12/08 00:10:58;;;;;;;3.00;0.90;;;19.50;57.10;;;;;;4954178;28;20052;-56
2022/12/08 00:13:23;;;;;;;2.78;0.90;;;19.50;57.10;;;;;;4953726;28;20043;-57
2022/12/08 00:15:49;;;;;;;3.25;1.20;;;19.50;57.00;;;;;;4952751;28;20051;-56
2022/12/08 00:18:14;;;;;;;3.55;1.20;;;19.50;57.00;;;;;;4953778;28;20047;-56
2022/12/08 00:20:40;;;;;;;3.38;1.10;;;19.40;56.90;;;;;;4952762;28;20047;-56
2022/12/08 00:23:05;;;;;;;5.35;1.30;;;19.40;56.90;;;;;;4953947;28;20040;-56
2022/12/08 00:25:33;;;;;;;2.97;1.10;;;19.40;56.90;;;;;;4953471;28;20495;-56
2022/12/08 00:27:59;;;;;;;2.50;1.17;;;19.40;56.90;;;;;;4953370;28;20086;-56
2022/12/08 00:30:24;;;;;;;3.85;1.00;;;19.30;56.90;;;;;;4953700;28;20055;-57
2022/12/08 00:32:50;;;;;;;3.92;1.20;;;19.40;56.90;;;;;;4953873;28;20117;-56
2022/12/08 00:35:15;;;;;;;2.47;1.00;;;19.40;56.90;;;;;;4952979;28;20047;-57
2022/12/08 00:37:41;;;;;;;2.72;0.85;;;19.40;56.90;;;;;;4953705;28;20035;-56
2022/12/08 00:40:07;;;;;;;1.77;0.90;;;19.30;56.90;;;;;;4953962;28;20517;-56
2022/12/08 00:42:33;;;;;;;2.50;1.23;;;19.30;56.90;;;;;;4952627;28;20039;-56
2022/12/08 00:44:58;;;;;;;2.95;1.10;;;19.30;56.90;;;;;;4953633;28;20061;-56
2022/12/08 00:47:24;;;;;;;3.22;1.20;;;19.30;56.90;;;;;;4953621;28;20095;-56
2022/12/08 00:49:49;;;;;;;4.25;1.17;;;19.30;56.90;;;;;;4956601;28;20558;-56
2022/12/08 00:52:15;;;;;;;1.63;0.85;;;19.30;56.90;;;;;;4956801;28;20069;-57
2022/12/08 00:54:40;;;;;;;3.50;1.20;;;19.20;56.80;;;;;;4956955;28;20055;-56
2022/12/08 00:57:06;;;;;;;2.85;0.95;;;19.30;56.90;;;;;;4956335;28;20126;-56
2022/12/08 00:59:32;;;;;;;3.42;1.10;;;19.30;56.90;;;;;;4956725;28;20078;-56
2022/12/08 01:01:57;;;;;;;3.17;1.10;;;19.20;56.90;;;;;;4956768;28;20094;-56
2022/12/08 01:04:23;;;;;;;3.78;1.00;;;19.20;56.90;;;;;;4955954;28;20047;-57
2022/12/08 01:06:48;;;;;;;2.45;1.00;;;19.20;56.90;;;;;;4956883;28;20062;-55
2022/12/08 01:09:14;;;;;;;3.92;1.20;;;19.20;56.90;;;;;;4956767;28;20094;-55
2022/12/08 01:11:40;;;;;;;2.55;1.05;;;19.20;56.90;;;;;;4956202;28;20043;-55
2022/12/08 01:14:05;;;;;;;4.88;1.23;;;19.20;56.90;;;;;;4956855;28;20043;-55
2022/12/08 01:16:32;;;;;;;2.65;1.02;;;19.20;56.90;;;;;;4956503;28;20448;-55
2022/12/08 01:18:58;;;;;;;2.53;0.90;;;19.20;56.90;;;;;;4955989;28;20055;-54
2022/12/08 01:21:24;;;;;;;2.13;1.00;;;19.10;56.80;;;;;;4956293;28;20040;-54
2022/12/08 01:23:49;;;;;;;3.00;1.10;;;19.10;56.80;;;;;;4956413;28;20047;-54
2022/12/08 01:26:16;;;;;;;2.03;0.88;;;19.10;56.80;;;;;;4955556;28;20126;-54
2022/12/08 01:28:41;;;;;;;4.32;1.13;;;19.10;56.80;;;;;;4956483;28;20194;-54
2022/12/08 01:31:15;;;;;;;2.67;1.20;;;19.10;56.90;;;;;;4956130;28;20090;-55
2022/12/08 01:33:41;;;;;;;3.08;1.00;;;19.10;56.80;;;;;;4956089;28;20079;-55
2022/12/08 01:36:07;;;;;;;2.88;1.00;;;19.10;56.80;;;;;;4956354;28;20070;-56
2022/12/08 01:38:33;;;;;;;3.05;0.95;;;19.00;56.70;;;;;;4955374;28;20047;-55
2022/12/08 01:40:58;;;;;;;4.18;1.13;;;19.00;56.80;;;;;;4956153;28;20039;-56
2022/12/08 01:43:24;;;;;;;4.60;1.10;;;19.00;56.70;;;;;;4955640;28;20066;-56
2022/12/08 01:45:49;;;;;;;3.28;0.98;;;19.00;56.70;;;;;;4955438;28;20093;-56
2022/12/08 01:48:20;;;;;;;3.53;1.20;;;19.00;56.70;;;;;;4955817;28;20353;-56
2022/12/08 01:50:46;;;;;;;3.42;1.00;;;19.00;56.60;;;;;;4956236;28;20299;-56
2022/12/08 01:53:14;;;;;;;3.13;1.08;;;19.00;56.60;;;;;;4970055;28;20108;-56
2022/12/08 01:55:41;;;;;;;2.30;0.80;;;19.00;56.70;;;;;;4970805;28;20043;-56
2022/12/08 01:58:17;;;;;;;3.40;0.90;;;19.00;56.70;;;;;;4970634;28;20477;-55
2022/12/08 02:00:42;;;;;;;2.80;1.20;;;19.00;56.60;;;;;;4954323;28;20051;-56
2022/12/08 02:03:14;;;;;;;4.47;1.35;;;19.00;56.60;;;;;;4970690;28;20105;-56
2022/12/08 02:05:40;;;;;;;3.35;1.00;;;19.00;56.60;;;;;;4970806;28;20039;-56
2022/12/08 02:08:07;;;;;;;3.55;0.93;;;19.00;56.70;;;;;;4969798;28;20059;-56
2022/12/08 02:10:35;;;;;;;3.60;1.00;;;19.00;56.60;;;;;;4955609;28;20106;-56
2022/12/08 02:13:01;;;;;;;3.17;1.00;;;18.90;56.60;;;;;;4954414;29;20047;-56
2022/12/08 02:15:53;;;;;;;3.25;1.10;;;18.90;56.50;;;;;;4954765;28;20109;-56
2022/12/08 02:18:40;;;;;;;3.65;1.08;;;18.90;56.50;;;;;;4969935;28;20058;-56
2022/12/08 02:21:33;;;;;;;2.53;1.00;;;18.90;56.50;;;;;;4953764;29;20083;-56
2022/12/08 02:24:04;;;;;;;4.43;1.40;;;18.90;56.40;;;;;;4970440;28;20051;-56
2022/12/08 02:26:47;;;;;;;4.13;0.93;;;18.90;56.50;;;;;;4969942;28;20487;-56
2022/12/08 02:29:39;;;;;;;2.92;1.13;;;18.90;56.40;;;;;;4954523;28;20087;-56
2022/12/08 02:32:23;;;;;;;2.38;0.70;;;18.90;56.40;;;;;;4954149;29;20047;-56
2022/12/08 02:35:02;;;;;;;3.25;1.13;;;18.90;56.30;;;;;;4954495;28;20066;-56
2022/12/08 02:37:44;;;;;;;2.47;0.80;;;19.00;56.30;;;;;;4969668;28;20126;-56
2022/12/08 02:40:18;;;;;;;1.50;0.70;;;18.90;56.20;;;;;;4969999;28;20062;-56
2022/12/08 02:42:53;;;;;;;2.67;1.00;;;19.00;56.30;;;;;;4969027;28;20059;-56
2022/12/08 02:45:32;;;;;;;2.60;0.80;;;18.90;56.20;;;;;;4969946;28;20102;-56
2022/12/08 02:47:58;;;;;;;2.58;0.93;;;19.00;56.30;;;;;;4969429;28;20086;-56
2022/12/08 02:50:23;;;;;;;2.70;0.70;;;19.00;56.30;;;;;;4968734;28;20468;-56
2022/12/08 02:52:49;;;;;;;2.10;0.73;;;19.00;56.30;;;;;;4955083;28;20538;-56
2022/12/08 02:55:27;;;;;;;3.90;0.90;;;19.00;56.30;;;;;;4954554;28;20039;-57
2022/12/08 02:58:09;;;;;;;4.63;1.17;;;19.00;56.30;;;;;;4969600;28;20054;-56
2022/12/08 03:00:47;;;;;;;3.35;1.13;;;19.00;56.30;;;;;;4969535;28;20051;-56
2022/12/08 03:03:22;;;;;;;1.83;0.80;;;19.00;56.20;;;;;;4953956;28;20053;-56
2022/12/08 03:06:05;;;;;;;3.42;0.88;;;19.00;56.20;;;;;;4969152;28;20051;-56
2022/12/08 03:08:48;;;;;;;3.58;0.93;;;18.90;56.10;;;;;;4953432;29;20047;-56
2022/12/08 03:11:19;;;;;;;3.75;0.90;;;19.00;56.10;;;;;;4968416;28;20070;-56
2022/12/08 03:13:46;;;;;;;1.90;0.80;;;19.00;56.10;;;;;;4954653;28;20109;-56
2022/12/08 03:16:15;;;;;;;3.08;0.85;;;19.00;56.10;;;;;;4969083;28;20047;-56
2022/12/08 03:18:44;;;;;;;2.72;0.60;;;19.00;56.10;;;;;;4968406;28;20487;-56
2022/12/08 03:21:09;;;;;;;1.75;0.65;;;19.00;56.10;;;;;;4954053;28;20070;-56
2022/12/08 03:23:35;;;;;;;1.52;0.60;;;19.00;56.10;;;;;;4952131;28;20388;-56
2022/12/08 03:26:06;;;;;;;1.75;0.75;;;19.00;56.10;;;;;;4954644;28;20039;-57
2022/12/08 03:28:31;;;;;;;2.90;0.88;;;19.00;56.10;;;;;;4969320;28;20064;-57
2022/12/08 03:30:57;;;;;;;1.10;0.60;;;19.00;56.10;;;;;;4968535;28;20054;-56
2022/12/08 03:33:34;;;;;;;1.98;0.63;;;19.00;56.00;;;;;;4968828;28;20112;-56
2022/12/08 03:36:00;;;;;;;3.08;0.70;;;19.00;56.00;;;;;;4969165;28;20083;-56
2022/12/08 03:38:25;;;;;;;1.92;0.88;;;19.10;56.00;;;;;;4968175;28;20047;-57
2022/12/08 03:43:35;;;;;;;2.50;0.60;;;19.10;56.00;;;;;;4954106;28;20468;-56
2022/12/08 03:46:01;;;;;;;2.85;0.80;;;19.10;55.90;;;;;;4953530;28;20047;-57
2022/12/08 03:48:26;;;;;;;2.20;0.70;;;19.10;55.90;;;;;;4953669;28;20126;-57
2022/12/08 03:50:53;;;;;;;1.52;0.70;;;19.10;55.90;;;;;;4954068;28;20143;-56
2022/12/08 03:53:18;;;;;;;2.25;0.73;;;19.20;55.90;;;;;;4953419;28;20128;-56
2022/12/08 03:55:44;;;;;;;1.27;0.47;;;19.20;55.90;;;;;;4954268;28;20048;-56
2022/12/08 03:58:09;;;;;;;2.35;0.80;;;19.20;55.90;;;;;;4953956;28;20047;-56
2022/12/08 04:00:35;;;;;;;2.75;0.70;;;19.20;55.90;;;;;;4953491;28;20126;-56
2022/12/08 04:03:03;;;;;;;1.20;0.60;;;19.20;55.80;;;;;;4954086;28;20086;-56
2022/12/08 04:05:28;;;;;;;3.05;0.60;;;19.20;55.90;;;;;;4953917;28;20050;-56
2022/12/08 04:07:56;;;;;;;1.98;0.60;;;19.20;55.90;;;;;;4953151;28;20043;-56
2022/12/08 04:10:22;;;;;;;1.48;0.60;;;19.30;55.90;;;;;;4953785;28;20043;-56
2022/12/08 04:12:47;;;;;;;2.72;0.65;;;19.30;55.90;;;;;;4953167;28;20054;-56
2022/12/08 04:15:13;;;;;;;1.98;0.70;;;19.30;55.90;;;;;;4953833;28;20122;-56
2022/12/08 04:17:38;;;;;;;1.67;0.60;;;19.30;55.90;;;;;;4953495;28;20487;-56
2022/12/08 04:20:05;;;;;;;1.60;0.60;;;19.30;55.90;;;;;;4953341;28;20415;-56
2022/12/08 04:22:30;;;;;;;1.65;0.50;;;19.30;55.90;;;;;;4954034;28;20039;-56
2022/12/08 04:24:56;;;;;;;2.83;0.70;;;19.30;55.80;;;;;;4957803;28;20047;-55
2022/12/08 04:27:21;;;;;;;1.65;0.60;;;19.30;55.80;;;;;;4956510;28;20070;-56
2022/12/08 04:29:47;;;;;;;1.20;0.57;;;19.40;55.90;;;;;;4957589;28;20054;-56
2022/12/08 04:32:12;;;;;;;3.75;0.70;;;19.30;55.80;;;;;;4957014;28;20133;-56
2022/12/08 04:34:38;;;;;;;2.20;0.80;;;19.40;55.90;;;;;;4956869;28;20075;-56
2022/12/08 04:37:03;;;;;;;1.33;0.50;;;19.40;55.90;;;;;;4957614;28;20047;-56
2022/12/08 04:39:29;;;;;;;3.22;0.70;;;19.40;55.90;;;;;;4957172;28;20043;-56
2022/12/08 04:41:54;;;;;;;2.47;0.57;;;19.40;55.80;;;;;;4956541;28;20047;-56
2022/12/08 04:44:20;;;;;;;1.30;0.65;;;19.40;55.80;;;;;;4956768;28;20138;-56
2022/12/08 04:46:46;;;;;;;1.15;0.50;;;19.40;55.80;;;;;;4957226;28;20086;-55
2022/12/08 04:49:11;;;;;;;1.48;0.50;;;19.40;55.80;;;;;;4956464;28;20043;-56
2022/12/08 04:51:37;;;;;;;1.42;0.60;;;19.40;55.70;;;;;;4957305;28;20051;-56
2022/12/08 04:54:02;;;;;;;3.58;0.60;;;19.50;55.80;;;;;;4957210;28;20051;-56
2022/12/08 04:56:28;;;;;;;2.17;0.73;;;19.40;55.70;;;;;;4955964;28;20102;-56
2022/12/08 04:58:53;;;;;;;2.10;0.77;;;19.50;55.80;;;;;;4956795;28;20044;-56
2022/12/08 05:01:19;;;;;;;1.33;0.47;;;19.50;55.80;;;;;;4964568;28;20517;-56
2022/12/08 05:03:44;;;;;;;1.52;0.47;;;19.50;55.80;;;;;;4974575;28;20053;-56
2022/12/08 05:06:12;;;;;;;2.25;0.60;;;19.50;55.70;;;;;;4975068;28;20050;-56
2022/12/08 05:08:37;;;;;;;1.20;0.50;;;19.50;55.70;;;;;;4976068;28;20065;-56
2022/12/08 05:11:04;;;;;;;1.30;0.50;;;19.50;55.70;;;;;;4975358;28;20395;-56
2022/12/08 05:13:29;;;;;;;1.70;0.57;;;19.50;55.80;;;;;;4975905;28;20199;-56
2022/12/08 05:16:04;;;;;;;1.35;0.50;;;19.50;55.70;;;;;;4976009;28;20156;-56
2022/12/08 05:18:30;;;;;;;0.93;0.47;;;19.60;55.70;;;;;;4975875;28;20054;-56
2022/12/08 05:20:55;;;;;;;1.15;0.50;;;19.60;55.70;;;;;;4976059;28;20050;-56
2022/12/08 05:23:21;;;;;;;1.38;0.55;;;19.60;55.70;;;;;;4974938;28;20094;-56
2022/12/08 05:25:46;;;;;;;1.92;0.43;;;19.60;55.70;;;;;;4975744;28;20055;-56
2022/12/08 05:28:12;;;;;;;2.63;0.60;;;19.60;55.70;;;;;;4975375;28;20042;-56
2022/12/08 05:30:37;;;;;;;1.25;0.50;;;19.60;55.70;;;;;;4974321;28;20054;-56
2022/12/08 05:33:03;;;;;;;1.48;0.50;;;19.60;55.70;;;;;;4975708;28;20049;-56
2022/12/08 05:35:28;;;;;;;1.70;0.50;;;19.60;55.60;;;;;;4975143;28;20050;-56
2022/12/08 05:37:54;;;;;;;1.50;0.50;;;19.70;55.70;;;;;;4974895;28;20046;-56
2022/12/08 05:40:20;;;;;;;1.42;0.40;;;19.70;55.70;;;;;;4975195;28;20513;-56
2022/12/08 05:42:45;;;;;;;1.33;0.40;;;19.60;55.60;;;;;;4975583;28;20413;-56
2022/12/08 05:45:11;;;;;;;1.20;0.50;;;19.70;55.70;;;;;;4974170;28;20050;-56
2022/12/08 05:47:36;;;;;;;1.77;0.40;;;19.70;55.60;;;;;;4975463;28;20039;-56
2022/12/08 05:50:02;;;;;;;1.08;0.60;;;19.70;55.60;;;;;;4975269;28;20063;-56
2022/12/08 05:52:28;;;;;;;2.13;0.65;;;19.70;55.60;;;;;;4974544;28;20134;-56
2022/12/08 05:54:53;;;;;;;2.20;0.52;;;19.70;55.60;;;;;;4975495;28;20050;-56
2022/12/08 05:57:19;;;;;;;0.85;0.32;;;19.70;55.60;;;;;;4975244;28;20039;-56
2022/12/08 05:59:44;;;;;;;1.63;0.50;;;19.80;55.70;;;;;;4974265;28;20050;-56
2022/12/08 06:02:10;;;;;;;1.27;0.40;;;19.70;55.50;;;;;;4975107;28;20039;-56
2022/12/08 06:04:35;;;;;;;2.03;0.52;;;19.80;55.50;;;;;;4975262;28;20098;-57
2022/12/08 06:07:01;;;;;;;1.88;0.50;;;19.80;55.60;;;;;;4974212;28;20054;-56
2022/12/08 06:09:26;;;;;;;1.20;0.40;;;19.80;55.60;;;;;;4974828;28;20047;-56
2022/12/08 06:11:52;;;;;;;1.25;0.35;;;19.80;55.60;;;;;;4975234;28;20081;-56
2022/12/08 06:14:17;;;;;;;1.75;0.50;;;19.80;55.50;;;;;;4974047;28;20047;-57
2022/12/08 06:16:43;;;;;;;1.13;0.43;;;19.80;55.50;;;;;;4974832;28;20042;-56
2022/12/08 06:19:09;;;;;;;0.93;0.30;;;19.80;55.50;;;;;;4974673;28;20046;-56
2022/12/08 06:21:34;;;;;;;0.70;0.40;;;19.80;55.50;;;;;;4974088;28;20078;-56
2022/12/08 06:24:00;;;;;;;0.75;0.30;;;19.80;55.50;;;;;;4974699;28;20053;-56
2022/12/08 06:26:25;;;;;;;0.65;0.30;;;19.80;55.40;;;;;;4973616;28;20093;-58
2022/12/08 06:28:51;;;;;;;1.52;0.40;;;19.90;55.50;;;;;;4974837;28;20054;-55
2022/12/08 06:31:18;;;;;;;1.67;0.40;;;19.90;55.50;;;;;;4974434;28;20050;-56
2022/12/08 06:33:43;;;;;;;1.35;0.40;;;19.80;55.40;;;;;;4973795;28;20505;-56
2022/12/08 06:36:10;;;;;;;2.95;0.40;;;19.90;55.50;;;;;;4974309;28;20038;-56
2022/12/08 06:38:35;;;;;;;8.80;0.45;;;19.90;55.40;;;;;;4973345;28;20054;-56
2022/12/08 06:41:01;;;;;;;2.38;0.47;;;19.90;55.50;;;;;;4973910;28;20039;-55
2022/12/08 06:43:27;;;;;;;2.28;0.40;;;19.90;55.50;;;;;;4973733;28;20063;-56
2022/12/08 06:45:52;;;;;;;2.20;0.50;;;19.90;55.50;;;;;;4973873;28;20053;-56
2022/12/08 06:48:18;;;;;;;1.83;0.40;;;19.90;55.60;;;;;;4973267;28;20057;-56
2022/12/08 06:50:43;;;;;;;6.53;0.50;;;19.90;55.70;;;;;;4974590;28;20039;-56
2022/12/08 06:53:13;;;;;;;3.67;0.32;;;19.90;55.80;;;;;;4973625;28;20050;-56
2022/12/08 06:55:46;;;;;;;1.95;0.40;;;19.90;55.90;;;;;;4973285;28;20406;-55
2022/12/08 06:58:12;;;;;;;2.88;0.50;;;19.90;56.00;;;;;;4973499;28;20057;-56
2022/12/08 07:00:38;;;;;;;2.60;0.55;;;20.00;56.10;;;;;;4973357;28;20035;-56
2022/12/08 07:03:03;;;;;;;2.15;0.50;;;20.00;56.10;;;;;;4973341;28;20043;-56
2022/12/08 07:05:29;;;;;;;6.07;0.45;;;20.00;56.20;;;;;;4973909;28;20166;-56
2022/12/08 07:07:54;;;;;;;1.63;0.40;;;20.00;56.30;;;;;;4973787;28;20070;-56
2022/12/08 07:10:20;;;;;;;1.55;0.40;;;20.00;56.40;;;;;;4972974;28;20046;-56
2022/12/08 07:12:46;;;;;;;1.70;0.40;;;20.00;56.40;;;;;;4973717;28;20057;-56
2022/12/08 07:15:11;;;;;;;2.13;0.40;;;20.00;56.40;;;;;;4970126;28;20050;-56
2022/12/08 07:17:37;;;;;;;2.45;0.50;;;20.10;56.60;;;;;;4972829;28;20054;-56
2022/12/08 07:20:03;;;;;;;1.75;0.50;;;20.10;56.70;;;;;;4973788;28;20046;-56
2022/12/08 07:22:28;;;;;;;2.88;0.30;;;20.10;56.70;;;;;;4973336;28;20043;-57
2022/12/08 07:24:54;;;;;;;0.63;0.30;;;20.10;56.80;;;;;;4970580;28;20087;-57
2022/12/08 07:27:19;;;;;;;4.43;0.40;;;20.10;56.90;;;;;;4960744;28;20042;-57
2022/12/08 07:29:45;;;;;;;2.55;0.47;;;20.10;57.00;;;;;;4972593;28;20398;-56
2022/12/08 07:32:10;;;;;;;1.95;0.40;;;20.10;57.00;;;;;;4972884;28;20061;-57
2022/12/08 07:34:36;;;;;;;2.45;0.30;;;20.10;57.00;;;;;;4973265;28;20053;-57
2022/12/08 07:37:01;;;;;;;1.67;0.30;;;20.20;57.20;;;;;;4972081;28;20494;-56
2022/12/08 07:39:27;;;;;;;2.40;0.50;;;20.20;57.30;;;;;;4972898;28;20406;-56
2022/12/08 07:41:52;;;;;;;3.13;0.43;;;20.10;57.30;;;;;;4973419;28;20042;-57
2022/12/08 07:44:18;;;;;;;3.38;0.40;;;20.20;57.40;;;;;;4972389;28;20050;-57
2022/12/08 07:46:44;;;;;;;0.85;0.35;;;20.20;57.40;;;;;;4972230;28;20043;-56
2022/12/08 07:49:10;;;;;;;2.08;0.32;;;20.20;57.50;;;;;;4973414;28;20094;-57
2022/12/08 07:51:35;;;;;;;1.77;0.40;;;20.20;57.50;;;;;;4972737;28;20078;-57
2022/12/08 07:54:01;;;;;;;1.17;0.35;;;20.20;57.50;;;;;;4972273;28;20049;-57
2022/12/08 07:56:26;;;;;;;2.20;0.40;;;20.20;57.50;;;;;;4973430;28;20051;-56
2022/12/08 07:58:52;;;;;;;1.25;0.40;;;20.20;57.50;;;;;;4976863;28;20050;-56
2022/12/08 08:01:26;;;;;;;2.65;0.40;;;20.20;57.50;;;;;;4976983;28;20042;-57
2022/12/08 08:03:52;;;;;;;2.05;0.22;;;20.20;57.60;;;;;;4977532;28;20055;-57
2022/12/08 08:06:17;;;;;;;1.13;0.20;;;20.20;57.50;;;;;;4976253;28;20051;-58
2022/12/08 08:08:43;;;;;;;1.70;0.40;;;20.10;57.50;;;;;;4977394;28;20053;-57
2022/12/08 08:11:08;;;;;;;2.17;0.30;;;20.20;57.60;;;;;;4976865;28;20038;-57
2022/12/08 08:13:34;;;;;;;1.30;0.30;;;20.10;57.40;;;;;;4976460;28;20122;-57
2022/12/08 08:16:06;;;;;;;0.68;0.40;;;20.10;57.30;;;;;;4976920;28;20502;-57
2022/12/08 08:18:33;;;;;;;1.30;0.40;;;20.20;57.20;;;;;;4977109;28;20061;-58
2022/12/08 08:20:58;;;;;;;2.50;0.50;;;20.10;57.10;;;;;;4975106;28;20046;-57
2022/12/08 08:23:24;;;;;;;1.98;0.50;;;20.10;57.20;;;;;;4976495;28;20109;-57
2022/12/08 08:25:49;;;;;;;1.25;0.40;;;20.10;57.30;;;;;;4976520;28;20047;-57
2022/12/08 08:28:15;;;;;;;4.72;0.60;;;20.10;57.30;;;;;;4975812;28;20047;-57
2022/12/08 08:30:40;;;;;;;2.78;0.55;;;20.20;57.40;;;;;;4976743;28;20039;-58
2022/12/08 08:33:06;;;;;;;0.93;0.50;;;20.10;57.40;;;;;;4966014;28;20093;-57
2022/12/08 08:35:33;;;;;;;1.67;0.52;;;20.20;57.40;;;;;;4969987;28;20537;-58
2022/12/08 08:37:58;;;;;;;3.58;0.60;;;20.20;57.60;;;;;;4975692;28;20529;-58
2022/12/08 08:40:24;;;;;;;1.15;0.70;;;20.20;57.60;;;;;;4973942;28;20082;-58
2022/12/08 08:42:49;;;;;;;1.38;0.40;;;20.10;57.60;;;;;;4975810;28;20066;-58
2022/12/08 08:45:15;;;;;;;1.70;0.50;;;20.10;57.60;;;;;;4975850;28;20035;-57
2022/12/08 08:47:40;;;;;;;1.30;0.60;;;20.20;57.60;;;;;;4975387;28;20391;-58
2022/12/08 08:50:06;;;;;;;1.83;0.80;;;20.10;57.60;;;;;;4975619;28;20043;-55
2022/12/08 08:52:32;;;;;;;2.13;0.50;;;20.10;57.70;;;;;;4975773;28;20117;-57
2022/12/08 08:54:57;;;;;;;2.38;0.70;;;20.10;57.70;;;;;;4975549;28;20062;-58
2022/12/08 08:57:23;;;;;;;2.03;0.60;;;20.10;57.70;;;;;;4976216;28;20042;-57
2022/12/08 08:59:48;;;;;;;1.85;0.60;;;20.10;57.70;;;;;;4976313;28;20466;-56
2022/12/08 09:02:17;;;;;;;2.05;0.70;;;20.10;57.80;;;;;;4974779;28;20051;-56
2022/12/08 09:04:43;;;;;;;1.05;0.68;;;20.10;57.90;;;;;;4976397;28;20494;-57
2022/12/08 09:07:09;;;;;;;1.80;0.60;;;20.10;57.90;;;;;;4975719;28;20057;-57
2022/12/08 09:09:34;;;;;;;1.23;0.52;;;20.10;57.90;;;;;;4974969;28;20038;-56
2022/12/08 09:12:00;;;;;;;8.60;0.93;;;20.10;57.90;;;;;;4975817;28;20057;-57
2022/12/08 09:14:26;;;;;;;1.63;0.70;;;20.10;57.90;;;;;;4974173;28;20046;-56
2022/12/08 09:16:52;;;;;;;2.53;0.80;;;20.10;57.90;;;;;;4975230;28;20134;-57
2022/12/08 09:19:17;;;;;;;2.13;0.60;;;20.10;57.90;;;;;;4974081;28;20137;-57
2022/12/08 09:21:43;;;;;;;2.28;0.70;;;20.20;58.00;;;;;;4975825;28;20046;-57
2022/12/08 09:24:14;;;;;;;1.75;0.65;;;20.20;58.00;;;;;;4970072;28;20985;-57
2022/12/08 09:26:40;;;;;;;3.00;0.60;;;20.20;58.00;;;;;;4962605;28;20038;-56
2022/12/08 09:29:06;;;;;;;3.50;0.80;;;20.20;58.00;;;;;;4955747;28;20419;-57
2022/12/08 09:31:32;;;;;;;2.97;0.77;;;20.10;58.00;;;;;;4954481;28;20432;-56
2022/12/08 09:33:58;;;;;;;4.65;0.73;;;20.10;58.00;;;;;;4955505;28;20046;-56
2022/12/08 09:36:23;;;;;;;1.17;0.60;;;20.10;58.00;;;;;;4964426;28;20439;-56
2022/12/08 09:38:50;;;;;;;2.10;0.60;;;20.10;58.00;;;;;;4957975;28;20548;-57
2022/12/08 09:41:33;;;;;;;1.95;0.65;;;20.10;58.10;;;;;;4956498;28;20118;-56
2022/12/08 09:44:37;;;;;;;4.65;0.70;;;20.10;58.00;;;;;;4967401;28;20059;-56
2022/12/08 09:47:04;;;;;;;2.90;0.70;;;20.10;58.00;;;;;;4959548;28;20434;-57
2022/12/08 09:49:38;;;;;;;2.03;0.90;;;20.00;58.00;;;;;;4954998;28;20115;-57
2022/12/08 09:52:04;;;;;;;1.65;0.50;;;20.00;57.90;;;;;;4952849;28;20479;-57
2022/12/08 09:54:34;;;;;;;2.38;0.90;;;20.10;57.90;;;;;;4955983;28;20098;-56
2022/12/08 09:57:02;;;;;;;1.30;0.70;;;20.00;57.80;;;;;;4963541;28;20094;-56
2022/12/08 09:59:31;;;;;;;;;;;20.00;57.80;;;;;;4973842;28;20522;-56
2022/12/08 10:01:56;;;;;;;1.85;0.60;;;20.00;57.70;;;;;;4974883;28;20374;-56
2022/12/08 10:04:31;;;;;;;1.75;0.85;;;20.00;57.80;;;;;;4974140;28;20053;-56
2022/12/08 10:07:03;;;;;;;3.17;0.70;;;20.00;57.80;;;;;;4975411;28;20054;-56
2022/12/08 10:09:45;;;;;;;1.40;0.50;;;20.00;57.80;;;;;;4973530;28;20050;-57
2022/12/08 10:12:21;;;;;;;4.32;0.95;;;20.00;57.80;;;;;;4972563;28;20482;-56
2022/12/08 10:15:31;;;;;;;2.08;0.70;;;20.00;57.80;;;;;;4973843;28;20141;-57
2022/12/08 10:17:56;;;;;;;2.70;0.80;;;20.00;57.80;;;;;;4965710;28;20478;-56
2022/12/08 10:20:24;;;;;;;1.27;0.60;;;20.00;57.70;;;;;;4971014;28;20046;-56
2022/12/08 10:23:00;;;;;;;3.30;0.90;;;20.00;57.70;;;;;;4974279;28;20053;-56
2022/12/08 10:25:45;;;;;;;2.95;0.70;;;20.00;57.60;;;;;;4972561;28;20415;-56
2022/12/08 10:28:11;;;;;;;1.50;0.50;;;20.00;57.50;;;;;;4973808;28;20379;-56
2022/12/08 10:30:37;;;;;;;4.18;0.77;;;20.00;57.60;;;;;;4978134;28;20054;-55
2022/12/08 10:33:02;;;;;;;6.55;0.73;;;20.00;57.70;;;;;;4974017;28;20100;-56
2022/12/08 10:35:48;;;;;;;2.90;0.70;;;20.00;57.90;;;;;;4975916;28;20769;-56
2022/12/08 10:38:32;;;;;;;2.60;0.80;;;20.00;58.10;;;;;;4983407;28;20101;-55
2022/12/08 10:41:10;;;;;;;2.17;0.70;;;20.00;58.20;;;;;;4979382;28;20525;-56
2022/12/08 10:43:48;;;;;;;3.95;0.70;;;20.10;58.40;;;;;;4982388;28;20058;-56
2022/12/08 10:46:19;;;;;;;3.30;0.68;;;20.00;58.30;;;;;;4981338;28;20155;-56
2022/12/08 10:49:08;;;;;;;3.78;0.77;;;20.00;59.10;;;;;;4981537;28;20410;-56
2022/12/08 10:51:33;;;;;;;1.50;0.60;;;20.00;58.40;;;;;;4967233;28;20101;-57
2022/12/08 10:53:59;;;;;;;5.53;0.80;;;20.00;58.30;;;;;;4972728;28;20047;-57
2022/12/08 10:56:27;;;;;;;4.50;0.80;;;20.00;58.30;;;;;;4976215;28;20043;-57
2022/12/08 10:59:13;;;;;;;4.40;0.73;;;20.00;58.20;;;;;;4973446;28;20053;-57
2022/12/08 11:01:39;;;;;;;2.55;0.60;;;20.00;58.10;;;;;;4975101;28;20479;-57
2022/12/08 11:04:41;;;;;;;4.80;0.82;;;20.00;58.10;;;;;;4972545;28;20144;-56
2022/12/08 11:07:07;;;;;;;3.70;0.95;;;20.00;58.00;;;;;;4965065;28;20046;-59
2022/12/08 11:09:47;;;;;;;3.92;0.90;;;20.00;58.00;;;;;;4971536;28;20043;-57
2022/12/08 11:12:19;;;;;;;4.78;1.10;;;20.00;58.00;;;;;;4973524;28;20042;-57
2022/12/08 11:14:48;;;;;;;9.85;1.25;;;20.00;58.10;;;;;;4973391;28;20049;-57
2022/12/08 11:17:23;;;;;;;4.60;1.10;;;20.00;58.10;;;;;;4973662;28;20105;-57
2022/12/08 11:20:02;;;;;;;4.25;1.23;;;20.00;58.10;;;;;;4973820;28;20129;-57
2022/12/08 11:22:35;;;;;;;5.70;1.30;;;20.00;58.20;;;;;;4973039;28;20082;-57
2022/12/08 11:25:25;;;;;;;5.25;1.67;;;19.90;58.10;;;;;;4972824;28;20051;-59
2022/12/08 11:27:52;;;;;;;7.00;1.42;;;20.00;58.10;;;;;;4972594;28;20503;-58
2022/12/08 11:30:30;;;;;;;5.93;1.55;;;19.90;58.10;;;;;;4970725;28;20055;-58
2022/12/08 11:33:02;;;;;;;5.28;1.23;;;19.90;58.20;;;;;;4954275;28;20065;-58
2022/12/08 11:35:28;;;;;;;7.88;1.85;;;19.90;58.30;;;;;;4955175;28;20062;-58
2022/12/08 11:37:56;;;;;;;4.20;1.30;;;19.90;58.40;;;;;;4970066;28;20582;-55
2022/12/08 11:40:27;;;;;;;5.30;1.60;;;19.90;58.50;;;;;;4973825;28;20493;-55
2022/12/08 11:43:05;;;;;;;5.15;1.55;;;19.90;58.60;;;;;;4956355;28;20051;-56
2022/12/08 11:45:31;;;;;;;4.80;1.75;;;19.90;58.50;;;;;;4956729;28;20426;-55
2022/12/08 11:48:05;;;;;;;6.10;1.30;;;19.90;59.30;;;;;;4955103;28;20042;-55
2022/12/08 11:50:44;;;;;;;7.22;1.60;;;19.90;58.60;;;;;;4970801;28;20061;-55
2022/12/08 11:53:21;;;;;;;5.18;1.50;;;19.90;58.70;;;;;;4971619;28;20130;-57
2022/12/08 11:55:51;;;;;;;2.85;1.50;;;19.90;58.80;;;;;;4972164;28;20058;-57
2022/12/08 11:58:46;;;;;;;5.28;1.15;;;19.90;58.80;;;;;;4970339;28;20473;-56
2022/12/08 12:01:20;;;;;;;4.45;1.50;;;19.90;58.90;;;;;;4972820;28;20426;-56
2022/12/08 12:04:09;;;;;;;4.93;1.40;;;19.90;58.90;;;;;;4973563;28;20038;-56
2022/12/08 12:06:57;;;;;;;4.38;1.60;;;19.90;59.00;;;;;;4973471;28;20138;-56
2022/12/08 12:09:34;;;;;;;5.20;1.65;;;19.90;59.00;;;;;;4971956;28;20090;-56
2022/12/08 12:12:12;;;;;;;3.55;1.33;;;19.90;59.10;;;;;;4972572;28;20106;-56
2022/12/08 12:15:02;;;;;;;3.67;1.40;;;19.90;59.00;;;;;;4973469;28;20486;-56
2022/12/08 12:17:42;;;;;;;4.65;1.60;;;19.90;59.00;;;;;;4973019;28;20450;-56
2022/12/08 12:20:19;;;;;;;3.38;1.33;;;19.90;59.00;;;;;;4972647;28;20181;-56
2022/12/08 12:22:48;;;;;;;3.80;1.80;;;19.90;59.00;;;;;;4973176;28;20498;-56
2022/12/08 12:25:20;;;;;;;;;;;19.90;59.00;;;;;;4971710;28;20043;-56
2022/12/08 12:27:48;;;;;;;3.30;1.30;;;19.90;59.00;;;;;;4970926;28;19930;-56
2022/12/08 12:30:21;;;;;;;5.10;1.42;;;19.90;58.90;;;;;;4972789;28;20068;-56
2022/12/08 12:32:59;;;;;;;5.55;1.45;;;19.90;58.80;;;;;;4964373;28;20133;-56
2022/12/08 12:35:32;;;;;;;5.32;2.15;;;19.90;58.70;;;;;;4979794;28;20069;-57
2022/12/08 12:41:06;;;;;;;3.40;1.30;;;19.90;58.60;;;;;;4981403;28;20046;-56
2022/12/08 12:43:34;;;;;;;4.05;1.40;;;20.00;58.60;;;;;;4981659;28;20047;-57
2022/12/08 12:46:36;;;;;;;4.45;1.30;;;19.90;58.50;;;;;;4967845;28;20039;-57
2022/12/08 12:49:36;;;;;;;4.65;1.42;;;20.00;58.50;;;;;;4982582;28;20039;-56
2022/12/08 12:52:03;;;;;;;3.55;1.40;;;20.00;58.40;;;;;;4967618;28;20526;-56
2022/12/08 12:54:28;;;;;;;2.55;1.23;;;20.00;58.50;;;;;;4974373;28;20090;-56
2022/12/08 12:57:03;;;;;;;3.45;1.25;;;20.00;58.40;;;;;;4975648;28;20097;-56
2022/12/08 12:59:44;;;;;;;5.38;1.48;;;20.00;58.40;;;;;;4976363;28;20375;-56
2022/12/08 13:02:30;;;;;;;5.50;1.40;;;20.10;58.40;;;;;;4975763;28;20047;-56
2022/12/08 13:05:19;;;;;;;6.32;1.15;;;20.00;58.30;;;;;;4976785;28;20051;-58
2022/12/08 13:08:00;;;;;;;2.67;1.15;;;20.00;58.30;;;;;;4965898;28;20047;-58
2022/12/08 13:10:34;;;;;;;4.50;1.48;;;20.10;58.30;;;;;;4958741;28;20058;-58